createdAt,value
2023-03-23T15:59:32.764Z,0.50
2023-03-23T16:04:35.879Z,0.85
2023-03-23T16:09:37.570Z,0.40
2023-03-23T16:14:41.159Z,0.50
2023-03-23T16:19:42.800Z,0.60
2023-03-23T16:24:44.399Z,0.47
2023-03-23T16:30:02.876Z,0.52
2023-03-23T16:35:05.880Z,0.60
2023-03-23T16:40:08.394Z,0.40
2023-03-23T16:45:11.423Z,0.50
2023-03-23T16:50:15.488Z,0.73
2023-03-23T16:55:17.672Z,0.50
2023-03-23T17:00:23.142Z,0.40
2023-03-23T17:05:27.429Z,0.52
2023-03-23T17:10:30.382Z,0.40
2023-03-23T17:15:32.109Z,0.50
2023-03-23T17:20:34.539Z,0.40
2023-03-23T17:25:36.342Z,0.50
2023-03-23T17:30:41.382Z,0.43
2023-03-23T17:35:45.386Z,0.60
2023-03-23T17:40:47.151Z,0.50
2023-03-23T17:45:52.169Z,0.70
2023-03-23T17:50:59.264Z,0.60
2023-03-23T17:56:01.289Z,0.60
2023-03-23T18:01:03.741Z,0.65
2023-03-23T18:06:10.488Z,1.55
2023-03-23T18:16:14.075Z,1.25
2023-03-23T18:21:16.609Z,1.20
2023-03-23T18:26:19.021Z,0.82
2023-03-23T18:31:21.843Z,0.98
2023-03-23T18:36:26.648Z,1.15
2023-03-23T18:41:28.366Z,1.70
2023-03-23T18:46:30.166Z,1.70
2023-03-23T18:51:31.995Z,1.92
2023-03-23T18:56:33.699Z,1.80
2023-03-23T19:01:36.064Z,1.60
2023-03-23T19:06:37.816Z,1.50
2023-03-23T19:11:39.459Z,1.92
2023-03-23T19:16:41.407Z,1.70
2023-03-23T19:21:46.988Z,1.98
2023-03-23T19:26:49.315Z,2.80
2023-03-23T19:31:51.037Z,4.07
2023-03-23T19:36:59.502Z,1.80
2023-03-23T19:42:05.277Z,1.60
2023-03-23T19:47:07.555Z,1.60
2023-03-23T19:52:12.641Z,1.67
2023-03-23T19:57:16.171Z,2.22
2023-03-23T20:02:17.895Z,2.47
2023-03-23T20:07:21.349Z,2.08
2023-03-23T20:12:23.124Z,3.03
2023-03-23T20:17:25.888Z,2.13
2023-03-23T20:22:27.543Z,4.07
2023-03-23T20:27:29.305Z,2.80
2023-03-23T20:32:34.659Z,3.20
2023-03-23T20:37:38.324Z,2.85
2023-03-23T20:42:43.649Z,3.20
2023-03-23T20:47:45.426Z,2.50
2023-03-23T20:52:47.985Z,2.55
2023-03-23T20:57:49.618Z,2.88
2023-03-23T21:02:54.125Z,3.15
2023-03-23T21:07:57.936Z,1.60
2023-03-23T21:12:59.949Z,1.00
2023-03-23T21:18:01.691Z,0.80
2023-03-23T21:23:08.562Z,0.55
2023-03-23T21:28:13.571Z,0.55
2023-03-23T21:33:15.975Z,0.60
2023-03-23T21:38:19.777Z,0.60
2023-03-23T21:43:27.106Z,0.47
2023-03-23T21:48:30.261Z,0.60
2023-03-23T21:53:37.087Z,0.50
2023-03-23T22:03:41.125Z,0.60
2023-03-23T22:08:44.970Z,0.70
2023-03-23T22:13:47.024Z,0.80
2023-03-23T22:18:50.124Z,0.68
2023-03-23T22:23:53.550Z,0.80
2023-03-23T22:28:55.941Z,0.80
2023-03-23T22:33:57.903Z,0.60
2023-03-23T22:39:01.210Z,0.70
2023-03-23T22:44:04.649Z,1.08
2023-03-23T22:49:06.544Z,0.70
2023-03-23T22:54:09.759Z,0.95
2023-03-23T22:59:12.195Z,1.15
2023-03-23T23:04:13.974Z,1.05
2023-03-23T23:09:19.529Z,1.00
2023-03-23T23:14:21.377Z,1.20
2023-03-23T23:19:23.357Z,1.33
2023-03-23T23:24:26.541Z,2.10
2023-03-23T23:29:28.265Z,1.90
2023-03-23T23:34:30.059Z,1.30
2023-03-23T23:39:31.771Z,1.40
2023-03-23T23:44:33.556Z,1.00
2023-03-23T23:49:35.361Z,1.48
2023-03-23T23:54:37.615Z,1.42
2023-03-23T23:59:39.649Z,1.10
